createdAt,value
2023-04-27T00:01:13.872Z,62.19
2023-04-27T00:03:41.431Z,62.48
2023-04-27T00:06:09.744Z,61.60
2023-04-27T00:08:36.844Z,62.72
2023-04-27T00:11:03.863Z,62.18
2023-04-27T00:13:30.546Z,62.27
2023-04-27T00:15:57.168Z,62.47
2023-04-27T00:18:23.826Z,62.39
2023-04-27T00:20:50.565Z,62.41
2023-04-27T00:23:17.199Z,62.55
2023-04-27T00:25:43.852Z,61.96
2023-04-27T00:28:10.660Z,64.05
2023-04-27T00:30:37.238Z,63.05
2023-04-27T00:33:04.004Z,63.47
2023-04-27T00:35:32.159Z,62.97
2023-04-27T00:37:58.830Z,62.52
2023-04-27T00:40:25.423Z,62.78
2023-04-27T00:42:52.090Z,63.30
2023-04-27T00:45:18.658Z,64.55
2023-04-27T00:47:46.018Z,64.54
2023-04-27T00:50:12.675Z,65.07
2023-04-27T00:52:39.526Z,64.66
2023-04-27T00:55:07.266Z,65.43
2023-04-27T00:57:34.374Z,65.82
2023-04-27T01:00:02.272Z,65.52
2023-04-27T01:02:30.095Z,67.08
2023-04-27T01:04:57.182Z,66.36
2023-04-27T01:07:26.917Z,67.29
2023-04-27T01:09:53.675Z,69.36
2023-04-27T01:12:20.571Z,68.58
2023-04-27T01:14:47.121Z,68.58
2023-04-27T01:17:14.227Z,69.78
2023-04-27T01:19:41.222Z,71.04
2023-04-27T01:22:08.026Z,70.71
2023-04-27T01:24:34.680Z,71.98
2023-04-27T01:27:01.785Z,72.83
2023-04-27T01:29:28.498Z,72.56
2023-04-27T01:31:55.101Z,74.03
2023-04-27T01:34:21.839Z,74.22
2023-04-27T01:36:48.456Z,74.50
2023-04-27T01:39:15.338Z,74.20
2023-04-27T01:41:42.102Z,74.30
2023-04-27T01:44:08.748Z,74.59
2023-04-27T01:46:35.504Z,74.77
2023-04-27T01:49:02.431Z,74.08
2023-04-27T01:51:29.040Z,75.42
2023-04-27T01:53:55.752Z,76.70
2023-04-27T01:56:22.336Z,75.09
2023-04-27T01:58:48.895Z,76.13
2023-04-27T02:01:15.767Z,76.94
2023-04-27T02:03:42.477Z,76.27
2023-04-27T02:06:09.477Z,75.91
2023-04-27T02:08:36.326Z,76.51
2023-04-27T02:11:03.328Z,76.36
2023-04-27T02:13:29.909Z,75.31
2023-04-27T02:15:56.666Z,76.68
2023-04-27T02:18:24.246Z,75.20
2023-04-27T02:20:50.877Z,75.64
2023-04-27T02:23:17.432Z,75.97
2023-04-27T02:25:46.801Z,76.70
2023-04-27T02:28:14.220Z,77.89
2023-04-27T02:30:41.520Z,77.83
2023-04-27T02:33:08.218Z,77.30
2023-04-27T02:35:34.865Z,77.27
2023-04-27T02:38:01.619Z,77.53
2023-04-27T02:40:28.439Z,76.64
2023-04-27T02:42:54.982Z,76.38
2023-04-27T02:45:21.619Z,76.53
2023-04-27T02:47:48.927Z,76.61
2023-04-27T02:50:15.624Z,76.03
2023-04-27T02:52:42.195Z,76.31
2023-04-27T02:55:09.283Z,77.01
2023-04-27T02:57:36.064Z,76.19
2023-04-27T03:00:04.431Z,76.20
2023-04-27T03:02:31.045Z,76.14
2023-04-27T03:04:59.195Z,75.62
2023-04-27T03:07:25.844Z,75.68
2023-04-27T03:09:52.473Z,75.68
2023-04-27T03:12:19.077Z,76.15
2023-04-27T03:14:45.845Z,76.02
2023-04-27T03:17:12.438Z,75.94
2023-04-27T03:19:39.020Z,76.40
2023-04-27T03:22:05.695Z,75.69
2023-04-27T03:24:33.282Z,75.45
2023-04-27T03:26:59.886Z,75.36
2023-04-27T03:29:27.664Z,75.80
2023-04-27T03:31:54.244Z,75.78
2023-04-27T03:34:21.933Z,76.33
2023-04-27T03:36:48.521Z,76.21
2023-04-27T03:39:15.468Z,75.38
2023-04-27T03:41:42.602Z,75.75
2023-04-27T03:44:09.681Z,75.91
2023-04-27T03:46:36.371Z,76.04
2023-04-27T03:49:03.254Z,76.54
2023-04-27T03:51:32.169Z,75.86
2023-04-27T03:53:59.265Z,76.54
2023-04-27T03:56:28.359Z,76.64
2023-04-27T03:58:54.952Z,76.44
2023-04-27T04:01:22.010Z,76.74
2023-04-27T04:03:48.982Z,76.36
2023-04-27T04:06:15.699Z,76.84
2023-04-27T04:08:42.497Z,77.12
2023-04-27T04:11:09.091Z,77.17
2023-04-27T04:13:36.572Z,77.18
2023-04-27T04:16:08.290Z,77.01
2023-04-27T04:18:36.164Z,77.11
2023-04-27T04:21:03.338Z,77.54
2023-04-27T04:23:29.959Z,77.17
2023-04-27T04:25:56.713Z,77.10
2023-04-27T04:28:23.942Z,76.26
2023-04-27T04:30:51.188Z,76.90
2023-04-27T04:33:18.140Z,76.14
2023-04-27T04:35:44.802Z,75.93
2023-04-27T04:38:11.443Z,75.50
2023-04-27T04:40:44.444Z,75.94
2023-04-27T04:43:13.372Z,75.24
2023-04-27T04:45:40.096Z,75.29
2023-04-27T04:48:06.692Z,75.11
2023-04-27T04:50:33.617Z,75.01
2023-04-27T04:53:00.281Z,75.03
2023-04-27T04:55:28.384Z,74.23
2023-04-27T04:57:55.136Z,74.40
2023-04-27T05:00:22.453Z,74.30
2023-04-27T05:02:49.532Z,74.44
2023-04-27T05:05:16.723Z,74.96
2023-04-27T05:07:43.418Z,74.97
2023-04-27T05:10:10.196Z,74.43
2023-04-27T05:12:36.821Z,73.55
2023-04-27T05:15:03.952Z,74.05
2023-04-27T05:17:30.676Z,72.51
2023-04-27T05:19:58.246Z,73.07
2023-04-27T05:22:25.043Z,72.39
2023-04-27T05:24:51.942Z,72.17
2023-04-27T05:27:18.610Z,71.54
2023-04-27T05:29:45.176Z,70.41
2023-04-27T05:32:11.917Z,69.97
2023-04-27T05:34:38.589Z,70.53
2023-04-27T05:37:05.352Z,70.26
2023-04-27T05:39:32.102Z,67.73
2023-04-27T05:41:58.944Z,67.59
2023-04-27T05:44:28.516Z,68.77
2023-04-27T05:46:58.383Z,68.52
2023-04-27T05:49:24.973Z,68.18
2023-04-27T05:51:51.927Z,68.27
2023-04-27T05:54:18.507Z,68.02
2023-04-27T05:56:45.062Z,67.11
2023-04-27T05:59:11.900Z,67.30
2023-04-27T06:01:38.940Z,67.95
2023-04-27T06:04:05.825Z,67.52
2023-04-27T06:06:33.254Z,67.01
2023-04-27T06:09:05.925Z,68.08
2023-04-27T06:11:32.490Z,66.72
2023-04-27T06:13:59.069Z,62.73
2023-04-27T06:16:25.847Z,62.54
2023-04-27T06:18:52.586Z,60.43
2023-04-27T06:21:19.151Z,59.49
2023-04-27T06:23:46.037Z,58.63
2023-04-27T06:26:12.620Z,57.44
2023-04-27T06:28:39.274Z,56.61
2023-04-27T06:31:06.435Z,55.78
2023-04-27T06:33:33.615Z,54.66
2023-04-27T06:36:01.302Z,52.76
2023-04-27T06:38:27.953Z,51.56
2023-04-27T06:40:54.986Z,51.78
2023-04-27T06:43:22.267Z,51.99
2023-04-27T06:45:48.902Z,50.70
2023-04-27T06:48:15.595Z,51.08
2023-04-27T06:50:42.181Z,51.25
2023-04-27T06:53:09.014Z,51.93
2023-04-27T06:55:38.199Z,50.90
2023-04-27T06:58:04.853Z,51.48
2023-04-27T07:00:32.249Z,49.43
2023-04-27T07:02:59.061Z,47.32
2023-04-27T07:05:26.142Z,49.36
2023-04-27T07:07:52.921Z,48.25
2023-04-27T07:10:19.602Z,47.66
2023-04-27T07:12:46.614Z,47.18
2023-04-27T07:15:13.496Z,46.88
2023-04-27T07:17:40.160Z,46.43
2023-04-27T07:20:07.573Z,47.64
2023-04-27T07:22:34.289Z,47.93
2023-04-27T07:25:00.990Z,47.61
2023-04-27T07:27:27.640Z,46.96
2023-04-27T07:29:54.807Z,47.13
2023-04-27T07:32:22.777Z,47.63
2023-04-27T07:34:54.061Z,45.65
2023-04-27T07:37:21.297Z,43.40
2023-04-27T07:39:49.364Z,43.61
2023-04-27T07:42:16.222Z,43.73
2023-04-27T07:44:42.888Z,43.85
2023-04-27T07:47:09.538Z,42.04
2023-04-27T07:49:37.515Z,38.87
2023-04-27T07:52:04.846Z,40.30
2023-04-27T07:54:31.675Z,40.56
2023-04-27T07:56:58.290Z,39.16
2023-04-27T07:59:24.995Z,39.45
2023-04-27T08:01:51.741Z,37.41
2023-04-27T08:04:19.252Z,36.71
2023-04-27T08:06:47.040Z,36.75
2023-04-27T08:09:14.153Z,35.39
2023-04-27T08:11:41.111Z,37.38
2023-04-27T08:14:13.436Z,37.29
2023-04-27T08:16:44.022Z,38.25
2023-04-27T08:19:11.730Z,34.75
2023-04-27T08:21:39.219Z,34.90
2023-04-27T08:24:06.543Z,36.21
2023-04-27T08:26:33.801Z,36.74
2023-04-27T08:29:01.976Z,32.13
2023-04-27T08:31:31.482Z,35.08
2023-04-27T08:33:58.954Z,34.40
2023-04-27T08:36:26.252Z,33.00
2023-04-27T08:38:52.876Z,32.85
2023-04-27T08:41:23.649Z,32.43
2023-04-27T08:43:51.568Z,30.64
2023-04-27T08:46:21.794Z,33.18
2023-04-27T08:48:52.362Z,31.99
2023-04-27T08:51:20.268Z,31.77
2023-04-27T08:53:48.905Z,34.85
2023-04-27T08:56:15.689Z,31.63
2023-04-27T08:58:44.722Z,29.61
2023-04-27T09:01:11.583Z,31.85
2023-04-27T09:03:38.847Z,31.84
2023-04-27T09:06:06.310Z,34.35
2023-04-27T09:08:46.935Z,35.15
2023-04-27T09:11:14.685Z,35.39
2023-04-27T09:13:45.028Z,34.34
2023-04-27T09:16:15.017Z,30.98
2023-04-27T09:18:43.890Z,33.73
2023-04-27T09:21:10.674Z,30.16
2023-04-27T09:23:39.149Z,29.76
2023-04-27T09:26:09.988Z,30.11
2023-04-27T09:28:41.331Z,31.87
2023-04-27T09:31:09.623Z,31.46
2023-04-27T09:33:36.764Z,34.29
2023-04-27T09:36:07.621Z,34.74
2023-04-27T09:38:34.346Z,33.95
2023-04-27T09:41:01.680Z,32.61
2023-04-27T09:43:29.997Z,31.36
2023-04-27T09:45:57.693Z,30.10
2023-04-27T09:48:25.701Z,30.90
2023-04-27T09:50:52.975Z,30.67
2023-04-27T09:53:51.828Z,30.62
2023-04-27T09:56:55.968Z,30.33
2023-04-27T09:59:54.758Z,32.13
2023-04-27T10:02:24.862Z,31.66
2023-04-27T10:05:16.734Z,29.46
2023-04-27T10:07:45.347Z,29.98
2023-04-27T10:10:20.384Z,30.56
2023-04-27T10:12:58.075Z,32.70
2023-04-27T10:15:28.785Z,33.64
2023-04-27T10:17:58.774Z,30.16
2023-04-27T10:20:33.645Z,31.38
2023-04-27T10:23:00.961Z,31.51
2023-04-27T10:25:38.296Z,32.35
2023-04-27T10:28:05.132Z,32.56
2023-04-27T10:30:37.133Z,30.93
2023-04-27T10:33:09.520Z,31.70
2023-04-27T10:35:54.694Z,30.22
2023-04-27T10:38:28.797Z,29.79
2023-04-27T10:41:03.047Z,29.24
2023-04-27T10:43:31.939Z,31.77
2023-04-27T10:46:12.903Z,30.42
2023-04-27T10:48:41.212Z,30.36
2023-04-27T10:51:07.948Z,27.69
2023-04-27T10:53:36.196Z,28.97
2023-04-27T10:56:05.211Z,30.57
2023-04-27T10:58:41.559Z,28.16
2023-04-27T11:01:25.640Z,28.98
2023-04-27T11:03:57.165Z,29.14
2023-04-27T11:06:23.852Z,29.40
2023-04-27T11:08:51.516Z,29.83
2023-04-27T11:11:18.270Z,28.35
2023-04-27T11:13:44.935Z,28.53
2023-04-27T11:16:11.563Z,27.98
2023-04-27T11:18:38.602Z,27.59
2023-04-27T11:21:16.601Z,28.53
2023-04-27T11:23:43.745Z,28.54
2023-04-27T11:26:14.885Z,29.71
2023-04-27T11:28:56.891Z,29.46
2023-04-27T11:31:23.537Z,27.21
2023-04-27T11:33:51.048Z,27.29
2023-04-27T11:36:23.102Z,26.93
2023-04-27T11:38:49.946Z,28.60
2023-04-27T11:41:16.724Z,25.17
2023-04-27T11:43:47.775Z,28.06
2023-04-27T11:46:14.468Z,27.02
2023-04-27T11:48:41.303Z,29.03
2023-04-27T11:51:10.867Z,26.63
2023-04-27T11:53:39.917Z,26.99
2023-04-27T11:56:13.680Z,27.84
2023-04-27T11:58:40.470Z,27.65
2023-04-27T12:01:10.386Z,26.84
2023-04-27T12:03:37.845Z,26.08
2023-04-27T12:06:21.701Z,27.81
2023-04-27T12:08:51.551Z,27.67
2023-04-27T12:11:18.620Z,25.35
2023-04-27T12:13:45.176Z,27.12
2023-04-27T12:16:11.860Z,27.60
2023-04-27T12:18:38.394Z,26.06
2023-04-27T12:23:34.772Z,27.67
2023-04-27T12:26:01.431Z,25.81
2023-04-27T12:28:27.993Z,26.58
2023-04-27T12:30:57.983Z,25.26
2023-04-27T12:33:24.804Z,26.27
2023-04-27T12:35:52.076Z,28.34
2023-04-27T12:38:18.679Z,26.16
2023-04-27T12:40:45.250Z,28.39
2023-04-27T12:43:12.903Z,28.76
2023-04-27T12:45:39.629Z,28.10
2023-04-27T12:48:06.556Z,28.00
2023-04-27T12:50:33.228Z,28.07
2023-04-27T12:53:00.314Z,27.51
2023-04-27T12:55:33.846Z,26.31
2023-04-27T12:58:01.375Z,26.00
2023-04-27T13:00:29.542Z,26.69
2023-04-27T13:02:56.967Z,27.12
2023-04-27T13:05:23.846Z,27.78
2023-04-27T13:07:50.447Z,26.33
2023-04-27T13:10:17.086Z,25.97
2023-04-27T13:12:43.736Z,26.00
2023-04-27T13:15:10.815Z,26.67
2023-04-27T13:17:37.507Z,24.13
2023-04-27T13:20:04.376Z,25.13
2023-04-27T13:22:30.941Z,26.46
2023-04-27T13:24:59.048Z,27.60
2023-04-27T13:27:28.381Z,25.97
2023-04-27T13:29:55.247Z,23.21
2023-04-27T13:32:22.633Z,23.78
2023-04-27T13:34:49.405Z,24.10
2023-04-27T13:37:16.622Z,21.73
2023-04-27T13:39:43.304Z,21.47
2023-04-27T13:42:10.159Z,22.37
2023-04-27T13:44:36.916Z,21.95
2023-04-27T13:47:03.592Z,23.20
2023-04-27T13:49:30.330Z,23.82
2023-04-27T13:51:56.971Z,23.60
2023-04-27T13:54:23.665Z,22.45
2023-04-27T13:56:50.242Z,20.45
2023-04-27T13:59:17.224Z,20.28
2023-04-27T14:01:44.018Z,20.00
2023-04-27T14:04:10.770Z,20.22
2023-04-27T14:06:37.580Z,19.98
2023-04-27T14:09:04.837Z,20.15
2023-04-27T14:11:37.217Z,20.82
2023-04-27T14:14:08.910Z,21.87
2023-04-27T14:16:35.743Z,21.26
2023-04-27T14:19:02.385Z,22.42
2023-04-27T14:21:28.965Z,19.78
2023-04-27T14:23:55.497Z,20.20
2023-04-27T14:26:22.044Z,21.33
2023-04-27T14:28:48.576Z,19.35
2023-04-27T14:31:15.147Z,18.77
2023-04-27T14:33:41.694Z,19.08
2023-04-27T14:36:08.558Z,18.29
2023-04-27T14:38:35.072Z,17.60
2023-04-27T14:41:03.043Z,18.39
2023-04-27T14:43:29.673Z,18.68
2023-04-27T14:46:02.099Z,16.41
2023-04-27T14:48:35.056Z,17.45
2023-04-27T14:51:02.325Z,16.91
2023-04-27T14:53:28.948Z,15.95
2023-04-27T14:55:55.530Z,17.30
2023-04-27T14:58:22.156Z,16.39
2023-04-27T15:00:50.896Z,16.53
2023-04-27T15:03:17.610Z,16.52
2023-04-27T15:05:44.396Z,15.86
2023-04-27T15:08:11.634Z,17.01
2023-04-27T15:10:38.227Z,16.14
2023-04-27T15:13:04.761Z,14.01
2023-04-27T15:15:31.477Z,14.80
2023-04-27T15:17:59.077Z,14.13
2023-04-27T15:20:25.692Z,14.88
2023-04-27T15:22:52.311Z,13.64
2023-04-27T15:25:19.198Z,13.81
2023-04-27T15:27:45.805Z,13.55
2023-04-27T15:30:14.265Z,14.23
2023-04-27T15:32:41.110Z,15.84
2023-04-27T15:35:08.371Z,14.39
2023-04-27T15:37:36.734Z,14.35
2023-04-27T15:40:04.274Z,14.75
2023-04-27T15:42:30.974Z,14.63
2023-04-27T15:44:57.960Z,15.52
2023-04-27T15:47:24.511Z,15.88
2023-04-27T15:49:57.393Z,15.56
2023-04-27T15:52:26.888Z,15.25
2023-04-27T15:54:53.717Z,15.02
2023-04-27T15:57:20.499Z,16.21
2023-04-27T15:59:47.085Z,15.85
2023-04-27T16:02:13.838Z,15.60
2023-04-27T16:04:40.675Z,16.33
2023-04-27T16:07:07.447Z,15.32
2023-04-27T16:09:34.360Z,16.38
2023-04-27T16:12:01.938Z,15.36
2023-04-27T16:14:28.563Z,15.60
2023-04-27T16:16:59.466Z,15.79
2023-04-27T16:19:27.509Z,16.00
2023-04-27T16:21:54.198Z,16.42
2023-04-27T16:24:21.286Z,16.65
2023-04-27T16:26:48.236Z,16.82
2023-04-27T16:29:15.079Z,16.92
2023-04-27T16:31:42.766Z,17.50
2023-04-27T16:34:09.608Z,17.53
2023-04-27T16:36:36.603Z,17.68
2023-04-27T16:39:05.066Z,18.59
2023-04-27T16:41:31.863Z,17.97
2023-04-27T16:43:58.464Z,18.64
2023-04-27T16:46:25.137Z,18.44
2023-04-27T16:48:51.802Z,19.28
2023-04-27T16:51:18.402Z,18.75
2023-04-27T16:53:45.027Z,19.09
2023-04-27T16:56:13.466Z,19.39
2023-04-27T16:58:40.969Z,21.49
2023-04-27T17:01:07.909Z,20.67
2023-04-27T17:03:36.178Z,21.70
2023-04-27T17:06:03.453Z,22.41
2023-04-27T17:08:30.171Z,22.24
2023-04-27T17:10:56.767Z,23.40
2023-04-27T17:13:23.609Z,24.43
2023-04-27T17:15:50.631Z,23.24
2023-04-27T17:18:17.860Z,25.66
2023-04-27T17:20:44.493Z,26.29
2023-04-27T17:23:11.084Z,25.31
2023-04-27T17:25:37.664Z,25.19
2023-04-27T17:28:04.346Z,28.06
2023-04-27T17:30:31.258Z,27.73
2023-04-27T17:32:57.962Z,30.48
2023-04-27T17:35:24.732Z,31.07
2023-04-27T17:37:52.036Z,30.95
2023-04-27T17:40:20.999Z,32.09
2023-04-27T17:42:47.809Z,34.65
2023-04-27T17:45:14.868Z,32.50
2023-04-27T17:47:41.659Z,34.27
2023-04-27T17:50:08.857Z,33.32
2023-04-27T17:52:35.797Z,34.98
2023-04-27T17:55:02.965Z,34.70
2023-04-27T17:57:29.634Z,34.84
2023-04-27T17:59:56.176Z,37.48
2023-04-27T18:02:23.276Z,36.23
2023-04-27T18:04:50.073Z,36.96
2023-04-27T18:07:18.626Z,40.61
2023-04-27T18:09:45.679Z,41.29
2023-04-27T18:12:12.607Z,43.18
2023-04-27T18:14:39.433Z,42.16
2023-04-27T18:17:06.314Z,43.81
2023-04-27T18:19:32.891Z,43.75
2023-04-27T18:21:59.538Z,44.81
2023-04-27T18:24:26.153Z,44.74
2023-04-27T18:26:52.889Z,45.17
2023-04-27T18:29:19.442Z,47.17
2023-04-27T18:31:46.299Z,47.81
2023-04-27T18:34:14.725Z,49.68
2023-04-27T18:36:41.355Z,48.83
2023-04-27T18:39:08.002Z,48.83
2023-04-27T18:41:34.653Z,48.58
2023-04-27T18:44:07.088Z,50.14
2023-04-27T18:46:34.683Z,50.52
2023-04-27T18:49:02.159Z,50.31
2023-04-27T18:51:29.385Z,51.31
2023-04-27T18:53:57.513Z,50.56
2023-04-27T18:56:24.278Z,51.55
2023-04-27T18:58:51.572Z,51.40
2023-04-27T19:01:26.063Z,52.28
2023-04-27T19:03:53.586Z,55.09
2023-04-27T19:06:21.217Z,54.60
2023-04-27T19:08:48.287Z,53.96
2023-04-27T19:11:17.899Z,54.69
2023-04-27T19:13:47.753Z,55.56
2023-04-27T19:16:15.542Z,54.82
2023-04-27T19:18:42.178Z,55.24
2023-04-27T19:21:10.057Z,56.09
2023-04-27T19:23:36.744Z,56.93
2023-04-27T19:26:12.452Z,58.03
2023-04-27T19:28:40.131Z,57.71
2023-04-27T19:31:07.897Z,58.97
2023-04-27T19:33:34.580Z,57.69
2023-04-27T19:36:01.166Z,57.63
2023-04-27T19:38:27.856Z,58.63
2023-04-27T19:40:54.430Z,60.23
2023-04-27T19:43:21.743Z,61.52
2023-04-27T19:45:49.293Z,60.52
2023-04-27T19:48:16.165Z,57.25
2023-04-27T19:50:43.433Z,57.52
2023-04-27T19:53:10.944Z,57.76
2023-04-27T19:55:37.862Z,58.38
2023-04-27T19:58:04.585Z,59.60
2023-04-27T20:00:31.169Z,60.09
2023-04-27T20:02:57.997Z,60.98
2023-04-27T20:05:25.160Z,62.23
2023-04-27T20:07:52.012Z,64.08
2023-04-27T20:10:18.717Z,64.60
2023-04-27T20:12:56.223Z,63.80
2023-04-27T20:15:24.878Z,63.85
2023-04-27T20:17:52.688Z,63.52
2023-04-27T20:20:19.612Z,62.50
2023-04-27T20:22:46.200Z,61.21
2023-04-27T20:25:14.611Z,61.28
2023-04-27T20:27:41.642Z,62.68
2023-04-27T20:30:08.977Z,60.60
2023-04-27T20:32:36.345Z,61.39
2023-04-27T20:35:04.832Z,61.84
2023-04-27T20:37:32.417Z,60.56
2023-04-27T20:39:59.456Z,60.85
2023-04-27T20:42:26.096Z,62.48
2023-04-27T20:44:54.871Z,62.91
2023-04-27T20:47:21.949Z,64.26
2023-04-27T20:49:48.714Z,65.29
2023-04-27T20:52:15.487Z,66.17
2023-04-27T20:54:42.412Z,67.41
2023-04-27T20:57:13.489Z,68.01
2023-04-27T20:59:41.152Z,67.96
2023-04-27T21:02:08.241Z,67.98
2023-04-27T21:04:34.957Z,66.58
2023-04-27T21:07:01.609Z,68.90
2023-04-27T21:09:28.257Z,67.71
2023-04-27T21:11:54.843Z,67.59
2023-04-27T21:14:21.457Z,67.14
2023-04-27T21:16:48.139Z,68.42
2023-04-27T21:19:16.543Z,68.14
2023-04-27T21:21:43.266Z,69.06
2023-04-27T21:24:09.867Z,68.50
2023-04-27T21:26:36.684Z,69.17
2023-04-27T21:29:05.622Z,69.32
2023-04-27T21:31:33.278Z,68.46
2023-04-27T21:34:00.127Z,69.13
2023-04-27T21:36:26.794Z,68.94
2023-04-27T21:38:53.434Z,70.43
2023-04-27T21:41:19.985Z,70.61
2023-04-27T21:43:46.750Z,71.03
2023-04-27T21:46:13.399Z,71.22
2023-04-27T21:48:39.991Z,70.50
2023-04-27T21:51:06.568Z,70.99
2023-04-27T21:53:33.118Z,71.32
2023-04-27T21:56:00.064Z,71.40
2023-04-27T21:58:26.777Z,72.28
2023-04-27T22:00:53.344Z,72.08
2023-04-27T22:03:20.110Z,71.03
2023-04-27T22:05:48.942Z,72.46
2023-04-27T22:08:17.357Z,72.04
2023-04-27T22:10:45.204Z,71.70
2023-04-27T22:15:41.385Z,70.67
2023-04-27T22:18:08.120Z,72.47
2023-04-27T22:20:35.079Z,72.45
2023-04-27T22:23:01.825Z,73.25
2023-04-27T22:25:28.481Z,73.85
2023-04-27T22:27:55.113Z,74.79
2023-04-27T22:30:21.753Z,74.44
2023-04-27T22:32:48.541Z,73.73
2023-04-27T22:35:25.332Z,74.77
2023-04-27T22:37:53.629Z,74.45
2023-04-27T22:40:20.358Z,74.07
2023-04-27T22:42:46.901Z,75.34
2023-04-27T22:45:13.661Z,75.26
2023-04-27T22:47:41.375Z,76.13
2023-04-27T22:50:08.716Z,75.11
2023-04-27T22:52:37.335Z,75.88
2023-04-27T22:55:04.519Z,76.17
2023-04-27T22:57:31.507Z,75.34
2023-04-27T22:59:58.134Z,75.95
2023-04-27T23:02:24.843Z,74.77
2023-04-27T23:04:51.571Z,73.85
2023-04-27T23:07:18.278Z,73.06
2023-04-27T23:09:45.819Z,72.96
2023-04-27T23:12:12.506Z,73.12
2023-04-27T23:14:40.558Z,72.70
2023-04-27T23:17:07.531Z,73.47
2023-04-27T23:19:34.703Z,73.17
2023-04-27T23:22:01.817Z,72.78
2023-04-27T23:24:31.539Z,73.50
2023-04-27T23:26:58.514Z,74.35
2023-04-27T23:29:25.484Z,74.66
2023-04-27T23:31:52.114Z,75.35
2023-04-27T23:34:18.876Z,75.95
2023-04-27T23:36:45.433Z,75.92
2023-04-27T23:39:12.294Z,76.38
2023-04-27T23:41:38.818Z,75.81
2023-04-27T23:44:05.366Z,76.13
2023-04-27T23:46:32.007Z,76.42
2023-04-27T23:48:58.614Z,76.50
2023-04-27T23:51:25.292Z,76.85
2023-04-27T23:53:51.880Z,76.05
2023-04-27T23:56:19.349Z,75.75
2023-04-27T23:58:46.044Z,77.55
